Time;durP1;ratioP1;P1;durP2;ratioP2;P2;SDS_P1;SDS_P2;PMS_P1;PMS_P2;Temp;Humidity;BMP_temperature;BMP_pressure;BME280_temperature;BME280_humidity;BME280_pressure;Samples;Min_cycle;Max_cycle;Signal;HPM_P1;HPM_P2
2021/04/02 00:00:50;;;;;;;40.25;20.70;;;;;;;11.80;64.27;99012.53;5032033;28;20026;-70
2021/04/02 00:03:24;;;;;;;39.03;18.75;;;;;;;11.76;64.17;99013.97;5043453;28;20514;-69
2021/04/02 00:05:50;;;;;;;36.72;18.08;;;;;;;11.69;64.48;99016.69;5032029;28;20036;-69
2021/04/02 00:08:16;;;;;;;36.08;18.35;;;;;;;11.55;64.80;99013.13;5033466;28;20047;-69
2021/04/02 00:10:56;;;;;;;35.60;16.77;;;;;;;11.57;64.73;99024.56;5034123;28;20381;-70
2021/04/02 00:13:28;;;;;;;34.08;15.93;;;;;;;11.55;64.75;99029.38;5032829;28;20475;-72
2021/04/02 00:15:54;;;;;;;33.45;16.17;;;;;;;11.51;64.97;99025.38;5032483;28;20029;-70
2021/04/02 00:18:20;;;;;;;29.88;14.82;;;;;;;11.48;64.69;99030.38;5032140;28;20032;-70
2021/04/02 00:20:46;;;;;;;27.02;14.50;;;;;;;11.43;64.90;99032.88;5033369;28;20049;-69
2021/04/02 00:23:12;;;;;;;30.98;14.75;;;;;;;11.33;65.33;99030.53;5032937;28;20048;-69
2021/04/02 00:25:38;;;;;;;30.48;14.13;;;;;;;11.29;65.06;99010.28;5033310;28;20032;-70
2021/04/02 00:28:05;;;;;;;31.35;14.23;;;;;;;11.26;65.03;99032.38;5037905;28;20028;-70
2021/04/02 00:30:45;;;;;;;30.45;13.05;;;;;;;11.19;65.10;99022.34;5033686;28;20029;-70
2021/04/02 00:33:12;;;;;;;31.52;13.48;;;;;;;11.15;65.27;99026.50;5031711;28;20021;-69
2021/04/02 00:35:38;;;;;;;27.73;12.35;;;;;;;11.07;65.41;99033.97;5031374;28;20033;-69
2021/04/02 00:38:05;;;;;;;29.17;12.73;;;;;;;10.98;65.62;99025.19;5032529;28;20037;-69
2021/04/02 00:40:39;;;;;;;23.10;11.50;;;;;;;10.91;65.60;99024.31;5035008;28;20642;-70
2021/04/02 00:43:04;;;;;;;24.25;11.35;;;;;;;10.87;65.67;99025.72;5030224;28;20022;-70
2021/04/02 00:45:30;;;;;;;20.40;11.23;;;;;;;10.85;65.51;99019.69;5028818;28;20052;-70
2021/04/02 00:47:56;;;;;;;24.85;11.68;;;;;;;10.79;65.63;99018.59;5029357;28;20025;-70
2021/04/02 00:50:21;;;;;;;23.27;11.45;;;;;;;10.72;65.85;99021.28;5029656;28;20088;-69
2021/04/02 00:52:47;;;;;;;22.08;10.70;;;;;;;10.61;66.10;99012.88;5027739;28;20033;-70
2021/04/02 00:55:13;;;;;;;19.95;9.13;;;;;;;10.65;65.94;99023.09;5029138;28;20441;-70
2021/04/02 00:57:39;;;;;;;21.60;10.02;;;;;;;10.56;65.72;99010.78;5029921;28;20099;-70
2021/04/02 01:00:07;;;;;;;20.67;9.20;;;;;;;10.49;66.25;99023.41;5024708;28;20032;-70
2021/04/02 01:02:33;;;;;;;18.13;10.13;;;;;;;10.21;66.54;98982.81;5029820;28;20399;-70
2021/04/02 01:05:00;;;;;;;20.60;10.15;;;;;;;10.29;66.84;99004.34;5030136;28;20037;-72
2021/04/02 01:07:25;;;;;;;15.82;9.05;;;;;;;10.26;66.54;99013.63;5030219;28;20163;-70
2021/04/02 01:09:50;;;;;;;22.77;9.10;;;;;;;10.14;66.67;98996.31;5030408;28;20547;-72
2021/04/02 01:12:16;;;;;;;19.25;8.50;;;;;;;10.13;66.87;99000.03;5033030;28;20029;-69
2021/04/02 01:14:41;;;;;;;15.02;8.13;;;;;;;10.22;66.65;99004.25;5032056;28;20419;-70
2021/04/02 01:17:06;;;;;;;17.20;8.13;;;;;;;10.24;66.33;99001.34;5033390;28;20088;-69
2021/04/02 01:19:40;;;;;;;15.93;7.78;;;;;;;10.26;66.41;99015.50;5032056;28;20036;-70
2021/04/02 01:22:15;;;;;;;13.52;6.53;;;;;;;10.22;66.62;99012.38;5033065;28;20036;-70
2021/04/02 01:25:13;;;;;;;15.52;7.40;;;;;;;10.21;66.47;99017.97;5033036;28;20402;-70
2021/04/02 01:28:10;;;;;;;13.68;6.25;;;;;;;10.19;66.23;99022.72;5033719;28;20056;-69
2021/04/02 01:30:39;;;;;;;14.57;5.85;;;;;;;9.96;66.68;99006.75;5032437;28;20018;-70
2021/04/02 01:33:06;;;;;;;12.00;5.40;;;;;;;9.90;66.70;99000.22;5032141;28;20025;-70
2021/04/02 01:35:37;;;;;;;13.63;5.50;;;;;;;9.94;66.41;99027.72;5032745;28;20037;-70
2021/04/02 01:38:10;;;;;;;11.45;5.05;;;;;;;9.92;65.88;99013.56;5033724;28;20080;-70
2021/04/02 01:40:39;;;;;;;10.90;5.05;;;;;;;9.94;66.21;99014.22;5032192;28;20710;-70
2021/04/02 01:43:08;;;;;;;10.07;4.70;;;;;;;9.76;66.54;99004.69;5031522;28;20026;-69
2021/04/02 01:45:36;;;;;;;9.65;4.72;;;;;;;9.68;66.90;99012.91;5033676;28;20032;-69
2021/04/02 01:48:05;;;;;;;11.55;4.57;;;;;;;9.68;66.86;99017.50;5048371;28;20517;-70
2021/04/02 01:50:32;;;;;;;11.93;5.15;;;;;;;9.62;66.61;99009.13;5034325;28;20411;-70
2021/04/02 01:52:58;;;;;;;8.27;4.65;;;;;;;9.52;66.85;99018.56;5032802;28;20064;-69
2021/04/02 01:55:24;;;;;;;10.30;5.05;;;;;;;9.55;67.06;99023.59;5035029;28;20033;-70
2021/04/02 01:57:50;;;;;;;11.38;4.57;;;;;;;9.50;66.90;99016.06;5034193;28;20033;-69
2021/04/02 02:00:23;;;;;;;7.57;4.28;;;;;;;9.39;67.30;99008.47;5034263;28;20025;-70
2021/04/02 02:02:52;;;;;;;9.02;4.20;;;;;;;9.36;67.83;99020.47;5033544;28;20537;-69
2021/04/02 02:05:17;;;;;;;11.80;4.20;;;;;;;9.31;67.50;99012.13;5034261;28;20029;-69
2021/04/02 02:07:43;;;;;;;11.15;5.03;;;;;;;9.26;68.13;99017.25;5034941;28;20113;-70
2021/04/02 02:10:11;;;;;;;9.65;5.22;;;;;;;9.06;68.60;99008.06;5034677;28;20122;-70
2021/04/02 02:12:40;;;;;;;9.93;4.93;;;;;;;8.98;68.85;99017.94;5034731;28;20037;-72
2021/04/02 02:15:09;;;;;;;10.52;4.70;;;;;;;8.89;69.82;99016.38;5034463;28;20199;-70
2021/04/02 02:17:35;;;;;;;9.55;4.60;;;;;;;8.88;69.12;99008.44;5030581;28;20512;-70
2021/04/02 02:20:06;;;;;;;9.45;5.28;;;;;;;8.88;69.15;99022.81;5032447;28;20044;-70
2021/04/02 02:22:32;;;;;;;6.10;4.28;;;;;;;8.84;68.71;99012.56;5032161;28;20025;-70
2021/04/02 02:24:58;;;;;;;8.95;4.30;;;;;;;8.88;67.82;99012.00;5030336;28;20506;-70
2021/04/02 02:27:23;;;;;;;11.35;5.00;;;;;;;8.85;67.57;99015.06;5016507;28;20029;-70
2021/04/02 02:29:49;;;;;;;12.65;4.50;;;;;;;8.80;67.59;99020.16;5031519;28;20103;-69
2021/04/02 02:32:14;;;;;;;8.02;3.97;;;;;;;8.77;67.37;99021.38;5030216;28;20163;-69
2021/04/02 02:34:40;;;;;;;9.20;4.03;;;;;;;8.65;67.41;99022.06;5029614;28;20029;-70
2021/04/02 02:37:07;;;;;;;11.20;3.75;;;;;;;8.63;66.89;99024.94;5035672;28;20033;-70
2021/04/02 02:39:33;;;;;;;7.35;3.45;;;;;;;8.46;65.58;99009.94;5035533;28;20025;-69
2021/04/02 02:42:03;;;;;;;6.75;2.80;;;;;;;8.62;64.74;99039.44;5034796;28;20489;-69
2021/04/02 02:44:29;;;;;;;9.82;3.47;;;;;;;8.54;64.97;99024.19;5035365;28;20025;-70
2021/04/02 02:46:54;;;;;;;10.27;2.97;;;;;;;8.41;65.35;99028.53;5035958;28;20043;-69
2021/04/02 02:49:23;;;;;;;7.70;3.17;;;;;;;8.37;65.94;99032.59;5032003;28;20125;-70
2021/04/02 02:51:49;;;;;;;10.27;3.35;;;;;;;8.27;65.60;99025.59;5027698;28;20096;-70
2021/04/02 02:54:17;;;;;;;5.57;2.90;;;;;;;8.32;65.18;99039.34;5035263;28;20030;-70
2021/04/02 02:56:46;;;;;;;6.70;2.85;;;;;;;8.28;65.18;99037.22;5025651;28;20046;-69
2021/04/02 02:59:18;;;;;;;7.38;2.70;;;;;;;8.22;65.04;99032.56;5035456;28;20152;-69
2021/04/02 03:01:45;;;;;;;5.47;2.55;;;;;;;8.07;65.64;99030.66;5029866;28;20048;-69
2021/04/02 03:04:11;;;;;;;9.75;2.55;;;;;;;7.89;65.67;99022.91;5023023;28;20032;-70
2021/04/02 03:06:40;;;;;;;4.60;2.50;;;;;;;7.86;65.63;99038.59;5031243;28;20079;-69
2021/04/02 03:09:07;;;;;;;5.57;2.40;;;;;;;7.72;66.26;99031.28;5031650;28;20436;-69
2021/04/02 03:11:33;;;;;;;6.57;2.70;;;;;;;7.74;65.61;99045.41;5029398;28;20017;-70
2021/04/02 03:14:00;;;;;;;7.70;2.42;;;;;;;7.67;66.00;99046.09;5031317;28;20037;-69
2021/04/02 03:16:27;;;;;;;6.15;2.70;;;;;;;7.54;65.31;99045.03;5031545;28;20056;-69
2021/04/02 03:18:56;;;;;;;11.60;2.25;;;;;;;7.56;65.26;99043.84;5030711;28;20465;-69
2021/04/02 03:21:21;;;;;;;7.20;2.38;;;;;;;7.44;65.29;99042.56;5029896;28;20029;-71
2021/04/02 03:23:47;;;;;;;4.03;2.28;;;;;;;7.32;65.41;99041.31;5031879;28;20836;-69
2021/04/02 03:26:17;;;;;;;4.70;1.95;;;;;;;7.25;65.24;99044.69;5030545;28;20025;-70
2021/04/02 03:28:44;;;;;;;7.25;2.47;;;;;;;7.18;65.55;99056.34;5037394;28;20530;-70
2021/04/02 03:31:11;;;;;;;3.53;1.90;;;;;;;7.11;65.07;99064.28;5034359;28;20099;-69
2021/04/02 03:33:40;;;;;;;4.82;1.95;;;;;;;7.05;65.23;99067.66;5030744;28;20057;-70
2021/04/02 03:36:08;;;;;;;;;;;;;;;7.00;65.36;99057.41;5014714;28;20037;-70
2021/04/02 03:38:36;;;;;;;4.43;2.00;;;;;;;6.78;65.18;99040.16;5022729;28;20338;-70
2021/04/02 03:41:08;;;;;;;6.65;1.63;;;;;;;6.74;65.98;99054.16;5029025;28;20052;-69
2021/04/02 03:43:35;;;;;;;5.45;1.73;;;;;;;6.63;65.94;99067.94;5010700;28;20084;-69
2021/04/02 03:46:01;;;;;;;6.47;1.98;;;;;;;6.57;66.19;99069.47;5026499;28;20067;-70
2021/04/02 03:48:30;;;;;;;5.45;1.92;;;;;;;6.52;66.09;99066.44;5030375;28;20029;-70
2021/04/02 03:51:00;;;;;;;4.28;1.90;;;;;;;6.40;65.88;99051.72;5030823;28;20030;-70
2021/04/02 03:53:42;;;;;;;3.88;1.65;;;;;;;6.37;66.54;99071.69;5030781;28;20033;-70
2021/04/02 03:56:11;;;;;;;4.60;2.05;;;;;;;6.17;66.51;99057.78;5030905;28;20040;-70
2021/04/02 03:58:40;;;;;;;7.97;2.90;;;;;;;6.25;65.95;99076.56;5032896;28;20036;-69
2021/04/02 04:01:11;;;;;;;5.40;1.92;;;;;;;6.11;66.37;99059.28;5035649;28;20075;-69
2021/04/02 04:03:39;;;;;;;6.15;2.05;;;;;;;6.17;66.41;99067.69;5033503;28;20029;-70
2021/04/02 04:06:07;;;;;;;5.17;2.00;;;;;;;5.95;67.19;99063.81;5039592;28;20064;-69
2021/04/02 04:08:34;;;;;;;3.97;1.70;;;;;;;5.90;67.47;99066.97;5030139;28;20280;-69
2021/04/02 04:11:02;;;;;;;4.15;1.95;;;;;;;5.94;67.07;99084.44;5041757;28;20029;-69
2021/04/02 04:13:30;;;;;;;6.93;2.20;;;;;;;5.89;67.19;99078.72;5040771;28;20039;-69
2021/04/02 04:15:55;;;;;;;5.95;2.60;;;;;;;5.88;67.24;99080.56;5034333;28;20025;-70
2021/04/02 04:18:22;;;;;;;7.03;2.50;;;;;;;5.88;67.87;99083.25;5017360;28;20033;-69
2021/04/02 04:20:52;;;;;;;9.63;2.55;;;;;;;5.76;67.89;99071.13;5033458;28;20033;-69
2021/04/02 04:23:19;;;;;;;6.53;2.38;;;;;;;5.69;68.06;99078.19;5035015;28;20029;-69
2021/04/02 04:25:45;;;;;;;4.70;2.70;;;;;;;5.63;68.27;99082.38;5034594;28;20060;-71
2021/04/02 04:28:14;;;;;;;8.90;3.22;;;;;;;5.66;69.20;99090.09;5035179;28;20132;-70
2021/04/02 04:30:41;;;;;;;8.82;3.13;;;;;;;5.56;68.99;99085.91;5034314;28;20044;-69
2021/04/02 04:33:08;;;;;;;5.95;2.92;;;;;;;5.53;68.72;99079.00;5032763;28;20029;-69
2021/04/02 04:35:34;;;;;;;6.90;2.95;;;;;;;5.53;68.56;99079.00;5033822;28;20029;-69
2021/04/02 04:38:01;;;;;;;7.80;3.15;;;;;;;5.52;68.75;99082.69;5034160;28;20033;-69
2021/04/02 04:40:28;;;;;;;9.20;3.03;;;;;;;5.51;68.80;99082.88;5030337;28;20017;-69
2021/04/02 04:42:54;;;;;;;5.63;2.65;;;;;;;5.41;69.29;99094.56;5028707;28;20581;-69
2021/04/02 04:45:22;;;;;;;6.53;3.22;;;;;;;5.36;69.36;99086.16;5027842;28;20033;-69
2021/04/02 04:47:47;;;;;;;9.05;3.67;;;;;;;5.09;69.66;99065.78;5028012;28;20036;-70
2021/04/02 04:50:14;;;;;;;4.55;2.83;;;;;;;5.14;69.66;99094.81;5028527;28;20096;-69
2021/04/02 04:53:16;;;;;;;5.47;3.08;;;;;;;5.10;70.67;99102.31;5025591;28;20044;-69
2021/04/02 04:55:44;;;;;;;6.10;3.20;;;;;;;5.03;69.97;99101.28;5030031;28;20047;-69
2021/04/02 04:58:13;;;;;;;7.45;3.70;;;;;;;4.91;70.41;99097.22;5029938;28;20037;-69
2021/04/02 05:00:41;;;;;;;9.07;3.20;;;;;;;4.80;70.92;99091.13;5024255;28;20040;-69
2021/04/02 05:03:08;;;;;;;6.78;3.20;;;;;;;4.84;71.35;99102.38;5030608;28;20426;-69
2021/04/02 05:05:37;;;;;;;8.75;3.08;;;;;;;4.80;71.33;99096.50;5028944;28;20037;-69
2021/04/02 05:08:05;;;;;;;7.35;3.42;;;;;;;4.81;71.22;99103.53;5030303;28;20029;-69
2021/04/02 05:10:32;;;;;;;7.43;3.13;;;;;;;4.82;70.72;99101.66;5029243;28;20029;-69
2021/04/02 05:13:00;;;;;;;7.45;3.75;;;;;;;4.88;71.16;99098.38;5030136;28;20395;-69
2021/04/02 05:15:26;;;;;;;6.00;2.95;;;;;;;4.84;70.44;99089.78;5028114;28;20037;-69
2021/04/02 05:17:52;;;;;;;6.63;3.35;;;;;;;4.80;70.79;99082.25;5027856;28;20368;-69
2021/04/02 05:20:20;;;;;;;6.35;3.42;;;;;;;5.01;70.78;99112.19;5030286;28;20029;-70
2021/04/02 05:22:46;;;;;;;8.15;3.58;;;;;;;4.99;70.15;99087.38;5029626;28;20025;-69
2021/04/02 05:25:11;;;;;;;10.18;4.78;;;;;;;5.16;70.43;99104.38;5030149;28;20494;-69
2021/04/02 05:27:37;;;;;;;8.95;3.42;;;;;;;5.25;69.98;99099.88;5028402;28;20033;-69
2021/04/02 05:30:04;;;;;;;5.90;3.25;;;;;;;5.47;69.18;99110.00;5028073;28;20033;-70
2021/04/02 05:32:30;;;;;;;7.53;3.17;;;;;;;6.75;65.86;99126.56;5029078;28;20043;-69
2021/04/02 05:34:55;;;;;;;8.15;3.40;;;;;;;8.31;61.19;99115.03;5026869;28;20037;-69
2021/04/02 05:37:20;;;;;;;6.53;3.35;;;;;;;9.57;57.26;99103.41;5028045;28;20034;-70
2021/04/02 05:39:46;;;;;;;6.43;3.35;;;;;;;10.37;55.05;99106.13;5027764;28;20029;-69
2021/04/02 05:42:16;;;;;;;5.03;2.97;;;;;;;11.06;53.53;99097.28;5027200;28;20505;-69
2021/04/02 05:44:42;;;;;;;7.50;2.90;;;;;;;11.58;51.55;99091.28;5028555;28;20531;-70
2021/04/02 05:47:09;;;;;;;4.45;2.75;;;;;;;12.22;49.88;99097.31;5028778;28;20029;-70
2021/04/02 05:49:35;;;;;;;5.32;2.97;;;;;;;12.78;49.12;99096.88;5028908;28;20025;-70
2021/04/02 05:52:02;;;;;;;5.45;2.67;;;;;;;12.88;48.32;99074.75;5028012;28;20033;-70
2021/04/02 05:54:30;;;;;;;6.15;2.80;;;;;;;13.61;46.66;99095.47;5029516;28;20045;-70
2021/04/02 05:56:56;;;;;;;5.53;2.90;;;;;;;13.94;46.25;99089.88;5031691;28;20056;-70
2021/04/02 05:59:22;;;;;;;4.10;2.65;;;;;;;14.81;44.61;99095.53;5031173;28;20036;-71
2021/04/02 06:01:48;;;;;;;4.47;2.63;;;;;;;15.26;43.37;99079.75;5031060;28;20378;-71
2021/04/02 06:04:14;;;;;;;6.78;2.60;;;;;;;15.25;43.08;99096.34;5032331;28;20032;-70
2021/04/02 06:06:40;;;;;;;4.28;2.72;;;;;;;15.83;42.68;99093.16;5032258;28;20022;-71
2021/04/02 06:09:07;;;;;;;4.78;2.83;;;;;;;15.81;41.72;99083.53;5027822;28;20036;-74
2021/04/02 06:11:32;;;;;;;7.40;3.25;;;;;;;16.23;41.26;99092.56;5023850;28;20034;-73
2021/04/02 06:13:58;;;;;;;5.18;2.20;;;;;;;16.12;41.25;99063.34;5025900;28;20049;-73
2021/04/02 06:16:23;;;;;;;5.25;2.90;;;;;;;17.15;39.58;99088.53;5032574;28;20106;-74
2021/04/02 06:18:54;;;;;;;5.45;2.72;;;;;;;17.41;38.88;99057.09;5033422;28;20083;-70
2021/04/02 06:21:24;;;;;;;8.38;3.10;;;;;;;17.78;38.80;99081.38;5033151;28;20029;-70
2021/04/02 06:23:49;;;;;;;5.13;3.15;;;;;;;18.67;37.60;99081.63;5030481;28;20029;-71
2021/04/02 06:26:15;;;;;;;6.63;2.85;;;;;;;19.35;36.08;99068.69;5028379;28;20487;-72
2021/04/02 06:28:42;;;;;;;4.70;3.13;;;;;;;19.15;36.05;99082.97;5031356;28;20025;-71
2021/04/02 06:31:08;;;;;;;4.93;2.78;;;;;;;19.60;35.89;99081.91;5048186;28;20029;-73
2021/04/02 06:33:42;;;;;;;3.88;3.00;;;;;;;19.04;36.40;99086.63;5032022;28;20064;-72
2021/04/02 06:36:19;;;;;;;6.43;3.50;;;;;;;20.25;34.57;99084.84;5030467;28;20033;-72
2021/04/02 06:38:49;;;;;;;5.70;2.88;;;;;;;20.53;34.43;99089.22;5032010;28;20025;-74
2021/04/02 06:41:16;;;;;;;4.28;2.90;;;;;;;20.43;34.70;99087.22;5031988;28;20056;-73
2021/04/02 06:43:44;;;;;;;8.77;3.67;;;;;;;20.11;34.87;99096.25;5031432;28;20107;-72
2021/04/02 06:46:12;;;;;;;9.48;3.53;;;;;;;19.48;36.03;99093.00;5030362;28;20017;-72
2021/04/02 06:48:38;;;;;;;6.90;3.30;;;;;;;19.22;37.15;99107.47;5032174;28;20871;-71
2021/04/02 06:51:10;;;;;;;6.90;3.50;;;;;;;19.74;35.57;99096.09;5030955;28;20034;-70
2021/04/02 06:53:37;;;;;;;6.47;3.67;;;;;;;20.02;35.37;99099.72;5032991;28;20030;-74
2021/04/02 06:56:06;;;;;;;5.05;3.88;;;;;;;20.07;35.27;99111.59;5031805;28;20029;-74
2021/04/02 06:58:32;;;;;;;9.48;3.75;;;;;;;21.40;34.31;99114.66;5030628;28;20018;-70
2021/04/02 07:01:02;;;;;;;6.72;3.60;;;;;;;21.46;33.03;99108.13;5024342;28;20033;-71
2021/04/02 07:03:30;;;;;;;6.78;4.05;;;;;;;21.29;33.97;99101.91;5031220;28;20033;-71
2021/04/02 07:05:56;;;;;;;6.28;3.72;;;;;;;22.11;32.69;99111.38;5029287;28;20034;-68
2021/04/02 07:08:23;;;;;;;5.32;3.80;;;;;;;21.85;32.29;99111.31;5031073;28;20021;-70
2021/04/02 07:10:50;;;;;;;7.05;3.95;;;;;;;21.37;33.10;99109.66;5032446;28;20072;-74
2021/04/02 07:13:16;;;;;;;5.05;3.90;;;;;;;21.67;32.88;99109.88;5032789;28;20033;-74
2021/04/02 07:15:41;;;;;;;7.35;4.00;;;;;;;21.50;33.23;99103.72;5029776;28;20450;-67
2021/04/02 07:18:09;;;;;;;7.35;3.85;;;;;;;22.60;31.57;99102.66;5029186;28;20056;-73
2021/04/02 07:20:36;;;;;;;5.45;3.70;;;;;;;23.79;30.22;99102.25;5026360;28;20033;-73
2021/04/02 07:23:02;;;;;;;6.05;3.85;;;;;;;23.37;30.61;99097.94;5028583;28;20026;-73
2021/04/02 07:25:28;;;;;;;4.10;3.63;;;;;;;22.29;31.46;99110.91;5029913;28;20360;-73
2021/04/02 07:27:55;;;;;;;5.70;3.88;;;;;;;22.44;31.50;99107.34;5028775;28;20147;-73
2021/04/02 07:30:22;;;;;;;5.15;3.75;;;;;;;23.56;30.56;99105.63;5027737;28;20032;-73
2021/04/02 07:32:49;;;;;;;5.80;3.83;;;;;;;24.14;29.49;99108.69;5019952;28;20037;-73
2021/04/02 07:35:20;;;;;;;8.48;4.25;;;;;;;24.68;29.37;99105.03;5026405;28;20617;-73
2021/04/02 07:37:54;;;;;;;5.03;4.00;;;;;;;25.29;28.42;99102.84;5017422;28;20085;-76
2021/04/02 07:40:22;;;;;;;5.43;4.18;;;;;;;25.15;28.99;99119.28;5026342;28;20017;-74
2021/04/02 07:42:50;;;;;;;6.65;3.70;;;;;;;25.47;28.14;99104.06;5027871;28;20078;-69
2021/04/02 07:45:20;;;;;;;6.68;3.70;;;;;;;25.82;27.59;99110.28;5029980;28;20083;-71
2021/04/02 07:47:56;;;;;;;5.53;4.15;;;;;;;24.86;29.26;99105.44;5028705;28;20037;-71
2021/04/02 07:50:33;;;;;;;4.95;4.10;;;;;;;25.13;28.45;99116.81;5029896;28;20029;-78
2021/04/02 07:52:59;;;;;;;6.50;4.43;;;;;;;24.85;29.33;99107.38;5027374;28;20029;-77
2021/04/02 07:55:24;;;;;;;4.80;4.00;;;;;;;24.05;29.31;99105.72;5032515;28;20025;-77
2021/04/02 07:58:02;;;;;;;6.53;4.30;;;;;;;24.08;29.52;99112.59;5018568;28;20063;-73
2021/04/02 08:00:30;;;;;;;6.53;4.20;;;;;;;23.31;30.86;99123.88;5024200;28;20029;-74
2021/04/02 08:03:09;;;;;;;7.25;4.30;;;;;;;23.35;30.34;99116.72;5030368;28;20029;-76
2021/04/02 08:05:35;;;;;;;5.10;4.13;;;;;;;24.68;29.39;99112.50;5031274;28;20072;-77
2021/04/02 08:08:00;;;;;;;5.28;4.00;;;;;;;24.85;29.35;99104.63;5028132;28;20055;-71
2021/04/02 08:10:26;;;;;;;4.88;4.38;;;;;;;23.77;30.08;99118.28;5026517;28;20040;-75
2021/04/02 08:12:52;;;;;;;5.93;4.72;;;;;;;23.82;29.90;99114.66;5028254;28;20104;-73
2021/04/02 08:15:19;;;;;;;4.78;4.07;;;;;;;25.56;29.04;99114.19;5019627;28;20045;-72
2021/04/02 08:17:46;;;;;;;6.95;4.10;;;;;;;25.53;28.35;99108.41;5027994;28;20033;-73
2021/04/02 08:20:18;;;;;;;7.07;4.55;;;;;;;25.83;28.36;99100.84;5024169;28;20107;-71
2021/04/02 08:22:47;;;;;;;6.57;4.72;;;;;;;23.83;29.75;99111.59;5027809;28;20056;-71
2021/04/02 08:25:14;;;;;;;6.15;4.63;;;;;;;23.67;30.43;99121.03;5023468;28;20116;-71
2021/04/02 08:27:41;;;;;;;6.40;4.32;;;;;;;24.63;29.20;99124.44;5018685;28;20037;-71
2021/04/02 08:30:09;;;;;;;6.93;4.60;;;;;;;25.06;29.23;99121.88;5025145;28;20056;-71
2021/04/02 08:32:39;;;;;;;7.05;5.00;;;;;;;25.02;28.93;99120.81;5016158;28;20091;-71
2021/04/02 08:35:07;;;;;;;5.32;4.22;;;;;;;25.08;29.00;99122.41;5026750;28;20056;-71
2021/04/02 08:37:33;;;;;;;6.32;4.28;;;;;;;26.42;27.82;99118.91;5027382;28;20511;-71
2021/04/02 08:40:00;;;;;;;5.45;4.10;;;;;;;26.29;27.37;99117.72;5026523;28;20061;-70
2021/04/02 08:42:30;;;;;;;5.97;4.40;;;;;;;26.21;28.27;99101.75;5027490;28;20483;-72
2021/04/02 08:44:56;;;;;;;5.65;4.63;;;;;;;24.27;29.44;99121.88;5024458;28;20029;-72
2021/04/02 08:47:21;;;;;;;5.28;4.50;;;;;;;25.17;28.81;99128.16;5023084;28;20036;-71
2021/04/02 08:49:53;;;;;;;7.55;4.53;;;;;;;25.32;28.62;99124.44;5028209;28;20037;-71
2021/04/02 08:52:21;;;;;;;7.05;4.63;;;;;;;26.43;27.78;99104.72;5026021;28;20124;-70
2021/04/02 08:54:50;;;;;;;7.97;5.17;;;;;;;26.22;27.79;99120.03;5027185;28;20034;-71
2021/04/02 08:57:15;;;;;;;6.30;4.55;;;;;;;27.04;26.62;99118.78;5026909;28;20031;-71
2021/04/02 08:59:45;;;;;;;6.85;5.13;;;;;;;26.69;26.76;99115.47;5027250;28;20029;-71
2021/04/02 09:02:12;;;;;;;6.88;4.80;;;;;;;26.22;27.45;99114.47;5025931;28;20112;-71
2021/04/02 09:04:38;;;;;;;7.20;5.10;;;;;;;26.05;28.15;99112.22;5026806;28;20136;-71
2021/04/02 09:07:04;;;;;;;6.20;4.50;;;;;;;26.40;27.49;99110.88;5023787;28;20488;-71
2021/04/02 09:09:31;;;;;;;5.78;4.47;;;;;;;26.15;28.38;99095.44;5028754;28;20040;-71
2021/04/02 09:12:05;;;;;;;6.70;4.47;;;;;;;24.68;29.01;99118.03;5031345;28;20033;-71
2021/04/02 09:14:31;;;;;;;8.38;4.63;;;;;;;25.57;28.45;99110.31;5023693;28;20033;-71
2021/04/02 09:16:57;;;;;;;5.13;4.00;;;;;;;27.16;26.86;99108.00;5024852;28;20543;-72
2021/04/02 09:19:24;;;;;;;5.65;3.92;;;;;;;27.06;27.49;99109.03;5025986;28;20021;-73
2021/04/02 09:21:53;;;;;;;6.43;4.65;;;;;;;26.22;27.61;99106.97;5025489;28;20062;-73
2021/04/02 09:24:19;;;;;;;6.63;4.28;;;;;;;27.51;26.48;99095.44;5030039;28;20030;-73
2021/04/02 09:26:45;;;;;;;6.00;4.32;;;;;;;28.72;26.19;99099.78;5030162;28;20076;-73
2021/04/02 09:29:13;;;;;;;5.40;4.43;;;;;;;26.71;27.39;99099.34;5027710;28;20033;-73
2021/04/02 09:31:44;;;;;;;5.53;4.50;;;;;;;27.92;26.55;99104.91;5027560;28;20386;-73
2021/04/02 09:34:11;;;;;;;5.18;4.20;;;;;;;27.06;26.18;99100.69;5014391;28;20053;-73
2021/04/02 09:36:42;;;;;;;7.43;4.97;;;;;;;25.84;27.11;99103.34;5028334;28;20128;-74
2021/04/02 09:39:10;;;;;;;7.65;5.10;;;;;;;26.45;27.43;99105.25;5034665;28;20614;-73
2021/04/02 09:41:57;;;;;;;6.28;4.35;;;;;;;26.26;27.37;99096.13;5032595;28;20018;-75
2021/04/02 09:44:25;;;;;;;6.75;4.32;;;;;;;27.65;26.31;99098.19;5019242;28;20025;-74
2021/04/02 09:46:52;;;;;;;5.65;4.50;;;;;;;27.85;25.84;99097.00;5033729;28;20029;-74
2021/04/02 09:49:20;;;;;;;5.93;4.55;;;;;;;28.48;25.20;99103.69;5031508;28;20025;-73
2021/04/02 09:51:49;;;;;;;4.80;4.20;;;;;;;29.15;24.96;99102.84;5032894;28;20026;-74
2021/04/02 09:54:15;;;;;;;;;;;;;;;29.36;24.91;99108.69;5034129;28;20017;-73
2021/04/02 09:56:41;;;;;;;6.95;4.57;;;;;;;28.58;25.35;99110.94;5038579;28;19951;-73
2021/04/02 09:59:07;;;;;;;4.13;3.72;;;;;;;29.02;24.30;99104.56;5033667;28;20484;-75
2021/04/02 10:01:37;;;;;;;4.15;3.70;;;;;;;28.54;24.76;99107.16;5036800;28;20533;-75
2021/04/02 10:04:04;;;;;;;4.60;3.58;;;;;;;25.36;27.86;99109.69;5032828;28;20052;-76
2021/04/02 10:06:30;;;;;;;3.95;3.25;;;;;;;25.70;27.73;99107.91;5032419;28;20078;-73
2021/04/02 10:08:55;;;;;;;3.40;2.88;;;;;;;27.05;26.15;99087.09;5032608;28;20025;-73
2021/04/02 10:11:23;;;;;;;5.97;3.42;;;;;;;27.24;26.26;99101.75;5021381;28;20487;-73
2021/04/02 10:13:48;;;;;;;3.78;3.17;;;;;;;28.53;24.54;99103.56;5013436;28;20508;-73
2021/04/02 10:16:14;;;;;;;4.15;3.38;;;;;;;28.19;25.15;99109.59;5029958;28;20030;-74
2021/04/02 10:18:39;;;;;;;7.50;5.30;;;;;;;24.95;28.07;99108.44;5032109;28;20044;-75
2021/04/02 10:21:07;;;;;;;7.43;5.15;;;;;;;23.63;29.63;99111.66;5014832;28;20029;-73
2021/04/02 10:23:33;;;;;;;5.25;3.85;;;;;;;24.99;28.38;99106.72;5018861;28;20369;-74
2021/04/02 10:25:59;;;;;;;4.10;3.17;;;;;;;26.02;26.65;99085.91;5032777;28;20025;-73
2021/04/02 10:28:24;;;;;;;8.00;5.13;;;;;;;27.64;25.64;99099.34;5032437;28;20026;-73
2021/04/02 10:30:51;;;;;;;5.15;3.33;;;;;;;24.98;28.00;99103.13;5032518;28;20021;-75
2021/04/02 10:33:16;;;;;;;7.75;4.35;;;;;;;22.02;31.85;99102.00;5032312;28;20794;-73
2021/04/02 10:35:42;;;;;;;6.18;4.55;;;;;;;22.60;31.13;99105.44;5032307;28;20032;-74
2021/04/02 10:38:07;;;;;;;4.50;3.38;;;;;;;23.59;29.90;99111.41;5032368;28;20067;-73
2021/04/02 10:40:33;;;;;;;5.38;3.53;;;;;;;25.19;28.55;99097.44;5032729;28;20077;-74
2021/04/02 10:42:59;;;;;;;4.35;3.33;;;;;;;27.00;26.29;99095.53;5032483;28;20060;-73
2021/04/02 10:45:24;;;;;;;3.60;2.97;;;;;;;27.58;25.49;99081.09;5031640;28;20095;-73
2021/04/02 10:47:50;;;;;;;6.30;3.50;;;;;;;27.05;25.32;99082.38;5031903;28;20057;-74
2021/04/02 10:50:15;;;;;;;4.30;2.97;;;;;;;27.74;24.90;99076.88;5032382;28;20533;-73
2021/04/02 10:52:40;;;;;;;4.18;3.22;;;;;;;28.54;23.82;99082.94;5031746;28;20035;-73
2021/04/02 10:55:06;;;;;;;4.22;2.80;;;;;;;27.74;25.04;99081.63;5031565;28;20036;-73
2021/04/02 10:57:32;;;;;;;5.57;3.45;;;;;;;26.29;24.69;99078.88;5031314;28;20453;-73
2021/04/02 10:59:57;;;;;;;4.07;2.50;;;;;;;26.92;25.41;99082.34;5030796;28;20048;-72
2021/04/02 11:02:22;;;;;;;5.43;3.17;;;;;;;26.85;25.91;99071.63;5031085;28;20506;-74
2021/04/02 11:04:48;;;;;;;4.30;2.53;;;;;;;27.09;25.29;99082.56;5030992;28;20041;-73
2021/04/02 11:07:13;;;;;;;6.22;2.88;;;;;;;27.93;25.30;99067.63;5030152;28;20112;-73
2021/04/02 11:09:38;;;;;;;3.83;2.58;;;;;;;28.26;25.29;99071.03;5031238;28;20045;-72
2021/04/02 11:12:04;;;;;;;3.88;2.67;;;;;;;26.41;25.64;99082.03;5031975;28;20021;-73
2021/04/02 11:14:29;;;;;;;3.40;2.58;;;;;;;27.14;25.24;99073.31;5031591;28;20029;-71
2021/04/02 11:16:56;;;;;;;2.75;2.25;;;;;;;27.83;25.24;99067.84;5031831;28;20037;-73
2021/04/02 11:19:21;;;;;;;2.60;2.25;;;;;;;26.12;25.92;99067.47;5031223;28;20028;-75
2021/04/02 11:21:47;;;;;;;3.30;2.60;;;;;;;25.22;27.01;99069.16;5031851;28;20022;-72
2021/04/02 11:24:12;;;;;;;3.20;2.67;;;;;;;26.14;26.68;99062.47;5031593;28;20025;-73
2021/04/02 11:26:37;;;;;;;3.28;2.60;;;;;;;25.59;27.02;99058.16;5031608;28;20033;-73
2021/04/02 11:29:03;;;;;;;4.13;2.40;;;;;;;26.40;26.28;99055.41;5031484;28;20018;-73
2021/04/02 11:31:28;;;;;;;3.30;2.40;;;;;;;26.93;25.54;99062.59;5026339;28;20053;-73
2021/04/02 11:33:54;;;;;;;2.75;2.17;;;;;;;26.54;25.10;99055.50;5033352;28;20033;-74
2021/04/02 11:36:19;;;;;;;2.75;2.17;;;;;;;26.97;25.76;99048.94;5030176;28;20029;-73